sensor_id;sensor_type;location;lat;lon;timestamp;temperature;humidity
10722;DHT22;5412;59.450;18.124;2024-01-30T00:01:55;5.90;99.90
10722;DHT22;5412;59.450;18.124;2024-01-30T00:04:21;5.90;99.90
10722;DHT22;5412;59.450;18.124;2024-01-30T00:06:47;5.80;99.90
10722;DHT22;5412;59.450;18.124;2024-01-30T00:09:13;5.90;99.90
10722;DHT22;5412;59.450;18.124;2024-01-30T00:11:39;5.90;99.90
10722;DHT22;5412;59.450;18.124;2024-01-30T00:14:05;5.80;99.90
10722;DHT22;5412;59.450;18.124;2024-01-30T00:16:31;5.80;99.90
10722;DHT22;5412;59.450;18.124;2024-01-30T00:18:57;5.90;99.90
10722;DHT22;5412;59.450;18.124;2024-01-30T00:21:23;5.80;99.90
10722;DHT22;5412;59.450;18.124;2024-01-30T00:23:49;5.80;99.90
10722;DHT22;5412;59.450;18.124;2024-01-30T00:26:14;5.80;99.90
10722;DHT22;5412;59.450;18.124;2024-01-30T00:28:41;5.70;99.90
10722;DHT22;5412;59.450;18.124;2024-01-30T00:31:07;5.80;99.90
10722;DHT22;5412;59.450;18.124;2024-01-30T00:33:33;5.80;99.90
10722;DHT22;5412;59.450;18.124;2024-01-30T00:35:58;5.80;99.90
10722;DHT22;5412;59.450;18.124;2024-01-30T00:38:24;5.80;99.90
10722;DHT22;5412;59.450;18.124;2024-01-30T00:40:50;5.80;99.90
10722;DHT22;5412;59.450;18.124;2024-01-30T00:43:16;5.80;99.90
10722;DHT22;5412;59.450;18.124;2024-01-30T00:45:43;5.70;99.90
10722;DHT22;5412;59.450;18.124;2024-01-30T00:48:09;5.80;99.90
10722;DHT22;5412;59.450;18.124;2024-01-30T00:50:35;5.70;99.90
10722;DHT22;5412;59.450;18.124;2024-01-30T00:53:01;5.70;99.90
10722;DHT22;5412;59.450;18.124;2024-01-30T00:55:26;5.70;99.90
10722;DHT22;5412;59.450;18.124;2024-01-30T00:57:52;5.70;99.90
10722;DHT22;5412;59.450;18.124;2024-01-30T01:00:18;5.80;99.90
10722;DHT22;5412;59.450;18.124;2024-01-30T01:02:44;5.80;99.90
10722;DHT22;5412;59.450;18.124;2024-01-30T01:05:10;5.70;99.90
10722;DHT22;5412;59.450;18.124;2024-01-30T01:07:36;5.60;99.90
10722;DHT22;5412;59.450;18.124;2024-01-30T01:10:02;5.60;99.90
10722;DHT22;5412;59.450;18.124;2024-01-30T01:12:28;5.60;99.90
10722;DHT22;5412;59.450;18.124;2024-01-30T01:14:53;5.60;99.90
10722;DHT22;5412;59.450;18.124;2024-01-30T01:17:19;5.50;99.90
10722;DHT22;5412;59.450;18.124;2024-01-30T01:19:45;5.50;99.90
10722;DHT22;5412;59.450;18.124;2024-01-30T01:22:11;5.40;99.90
10722;DHT22;5412;59.450;18.124;2024-01-30T01:24:36;5.40;99.90
10722;DHT22;5412;59.450;18.124;2024-01-30T01:27:03;5.30;99.90
10722;DHT22;5412;59.450;18.124;2024-01-30T01:29:28;5.30;99.90
10722;DHT22;5412;59.450;18.124;2024-01-30T01:31:58;5.20;99.90
10722;DHT22;5412;59.450;18.124;2024-01-30T01:34:24;5.20;99.90
10722;DHT22;5412;59.450;18.124;2024-01-30T01:36:50;5.10;99.90
10722;DHT22;5412;59.450;18.124;2024-01-30T01:39:16;5.20;99.90
10722;DHT22;5412;59.450;18.124;2024-01-30T01:41:42;5.10;99.90
10722;DHT22;5412;59.450;18.124;2024-01-30T01:44:08;5.00;99.90
10722;DHT22;5412;59.450;18.124;2024-01-30T01:46:34;5.00;99.90
10722;DHT22;5412;59.450;18.124;2024-01-30T01:49:02;5.00;99.90
10722;DHT22;5412;59.450;18.124;2024-01-30T01:51:30;4.90;99.90
10722;DHT22;5412;59.450;18.124;2024-01-30T01:53:57;4.90;99.90
10722;DHT22;5412;59.450;18.124;2024-01-30T01:56:25;4.90;99.90
10722;DHT22;5412;59.450;18.124;2024-01-30T01:58:54;4.80;99.90
10722;DHT22;5412;59.450;18.124;2024-01-30T02:01:21;4.80;99.90
10722;DHT22;5412;59.450;18.124;2024-01-30T02:03:47;4.90;99.90
10722;DHT22;5412;59.450;18.124;2024-01-30T02:06:14;4.80;99.90
10722;DHT22;5412;59.450;18.124;2024-01-30T02:08:40;4.80;99.90
10722;DHT22;5412;59.450;18.124;2024-01-30T02:11:06;4.70;99.90
10722;DHT22;5412;59.450;18.124;2024-01-30T02:13:32;4.70;99.90
10722;DHT22;5412;59.450;18.124;2024-01-30T02:15:58;4.70;99.90
10722;DHT22;5412;59.450;18.124;2024-01-30T02:18:24;4.60;99.90
10722;DHT22;5412;59.450;18.124;2024-01-30T02:20:52;4.60;99.90
10722;DHT22;5412;59.450;18.124;2024-01-30T02:23:19;4.70;99.90
10722;DHT22;5412;59.450;18.124;2024-01-30T02:25:45;4.60;99.90
10722;DHT22;5412;59.450;18.124;2024-01-30T02:28:14;4.60;99.90
10722;DHT22;5412;59.450;18.124;2024-01-30T02:30:40;4.60;99.90
10722;DHT22;5412;59.450;18.124;2024-01-30T02:33:08;4.60;99.90
10722;DHT22;5412;59.450;18.124;2024-01-30T02:35:33;4.60;99.90
10722;DHT22;5412;59.450;18.124;2024-01-30T02:37:59;4.70;99.90
10722;DHT22;5412;59.450;18.124;2024-01-30T02:40:25;4.80;99.90
10722;DHT22;5412;59.450;18.124;2024-01-30T02:42:51;4.80;99.90
10722;DHT22;5412;59.450;18.124;2024-01-30T02:45:17;4.80;99.90
10722;DHT22;5412;59.450;18.124;2024-01-30T02:47:42;4.80;99.90
10722;DHT22;5412;59.450;18.124;2024-01-30T02:50:08;4.80;99.90
10722;DHT22;5412;59.450;18.124;2024-01-30T02:52:34;4.70;99.90
10722;DHT22;5412;59.450;18.124;2024-01-30T02:55:00;4.70;99.90
10722;DHT22;5412;59.450;18.124;2024-01-30T02:57:26;4.60;99.90
10722;DHT22;5412;59.450;18.124;2024-01-30T02:59:52;4.60;99.90
10722;DHT22;5412;59.450;18.124;2024-01-30T03:02:17;4.50;99.90
10722;DHT22;5412;59.450;18.124;2024-01-30T03:04:43;4.50;99.90
10722;DHT22;5412;59.450;18.124;2024-01-30T03:07:09;4.50;99.90
10722;DHT22;5412;59.450;18.124;2024-01-30T03:09:36;4.50;99.90
10722;DHT22;5412;59.450;18.124;2024-01-30T03:12:02;4.50;99.90
10722;DHT22;5412;59.450;18.124;2024-01-30T03:14:30;4.50;99.90
10722;DHT22;5412;59.450;18.124;2024-01-30T03:16:56;4.40;99.90
10722;DHT22;5412;59.450;18.124;2024-01-30T03:19:22;4.30;99.90
10722;DHT22;5412;59.450;18.124;2024-01-30T03:21:48;4.20;99.90
10722;DHT22;5412;59.450;18.124;2024-01-30T03:24:13;4.10;99.90
10722;DHT22;5412;59.450;18.124;2024-01-30T03:26:39;3.20;99.90
10722;DHT22;5412;59.450;18.124;2024-01-30T03:29:05;4.10;99.90
10722;DHT22;5412;59.450;18.124;2024-01-30T03:31:30;4.10;99.90
10722;DHT22;5412;59.450;18.124;2024-01-30T03:33:56;4.10;99.90
10722;DHT22;5412;59.450;18.124;2024-01-30T03:36:22;4.20;99.90
10722;DHT22;5412;59.450;18.124;2024-01-30T03:38:47;4.10;99.90
10722;DHT22;5412;59.450;18.124;2024-01-30T03:41:13;4.10;99.90
10722;DHT22;5412;59.450;18.124;2024-01-30T03:43:39;4.10;99.90
10722;DHT22;5412;59.450;18.124;2024-01-30T03:46:04;4.00;99.90
10722;DHT22;5412;59.450;18.124;2024-01-30T03:48:30;4.10;99.90
10722;DHT22;5412;59.450;18.124;2024-01-30T03:50:56;4.10;99.90
10722;DHT22;5412;59.450;18.124;2024-01-30T03:53:22;4.10;99.90
10722;DHT22;5412;59.450;18.124;2024-01-30T03:55:47;4.10;99.90
10722;DHT22;5412;59.450;18.124;2024-01-30T03:58:13;4.10;99.90
10722;DHT22;5412;59.450;18.124;2024-01-30T04:00:39;4.00;99.90
10722;DHT22;5412;59.450;18.124;2024-01-30T04:03:06;4.00;99.90
10722;DHT22;5412;59.450;18.124;2024-01-30T04:05:32;4.00;99.90
10722;DHT22;5412;59.450;18.124;2024-01-30T04:07:58;4.00;99.90
10722;DHT22;5412;59.450;18.124;2024-01-30T04:10:24;4.00;99.90
10722;DHT22;5412;59.450;18.124;2024-01-30T04:12:50;3.90;99.90
10722;DHT22;5412;59.450;18.124;2024-01-30T04:15:17;3.90;99.90
10722;DHT22;5412;59.450;18.124;2024-01-30T04:17:43;3.90;99.90
10722;DHT22;5412;59.450;18.124;2024-01-30T04:20:14;3.90;99.90
10722;DHT22;5412;59.450;18.124;2024-01-30T04:22:42;3.90;99.90
10722;DHT22;5412;59.450;18.124;2024-01-30T04:25:08;3.80;99.90
10722;DHT22;5412;59.450;18.124;2024-01-30T04:27:33;3.80;99.90
10722;DHT22;5412;59.450;18.124;2024-01-30T04:29:59;3.80;99.90
10722;DHT22;5412;59.450;18.124;2024-01-30T04:32:25;3.70;99.90
10722;DHT22;5412;59.450;18.124;2024-01-30T04:34:50;3.80;99.90
10722;DHT22;5412;59.450;18.124;2024-01-30T04:37:16;3.60;99.90
10722;DHT22;5412;59.450;18.124;2024-01-30T04:39:42;3.60;99.90
10722;DHT22;5412;59.450;18.124;2024-01-30T04:42:08;3.70;99.90
10722;DHT22;5412;59.450;18.124;2024-01-30T04:44:34;3.80;99.90
10722;DHT22;5412;59.450;18.124;2024-01-30T04:46:59;3.70;99.90
10722;DHT22;5412;59.450;18.124;2024-01-30T04:49:27;3.70;99.90
10722;DHT22;5412;59.450;18.124;2024-01-30T04:51:53;3.70;99.90
10722;DHT22;5412;59.450;18.124;2024-01-30T04:54:18;3.60;99.90
10722;DHT22;5412;59.450;18.124;2024-01-30T04:56:44;3.70;99.90
10722;DHT22;5412;59.450;18.124;2024-01-30T04:59:10;3.60;99.90
10722;DHT22;5412;59.450;18.124;2024-01-30T05:01:35;3.60;99.90
10722;DHT22;5412;59.450;18.124;2024-01-30T05:04:01;3.60;99.90
10722;DHT22;5412;59.450;18.124;2024-01-30T05:06:29;3.60;99.90
10722;DHT22;5412;59.450;18.124;2024-01-30T05:08:55;3.60;99.90
10722;DHT22;5412;59.450;18.124;2024-01-30T05:11:21;3.60;99.90
10722;DHT22;5412;59.450;18.124;2024-01-30T05:13:46;3.60;99.90
10722;DHT22;5412;59.450;18.124;2024-01-30T05:16:13;3.60;99.90
10722;DHT22;5412;59.450;18.124;2024-01-30T05:18:38;3.60;99.90
10722;DHT22;5412;59.450;18.124;2024-01-30T05:21:05;3.60;99.90
10722;DHT22;5412;59.450;18.124;2024-01-30T05:23:31;3.60;99.90
10722;DHT22;5412;59.450;18.124;2024-01-30T05:25:57;3.60;99.90
10722;DHT22;5412;59.450;18.124;2024-01-30T05:28:22;3.60;99.90
10722;DHT22;5412;59.450;18.124;2024-01-30T05:30:48;3.60;99.90
10722;DHT22;5412;59.450;18.124;2024-01-30T05:33:14;5.00;99.90
10722;DHT22;5412;59.450;18.124;2024-01-30T05:35:39;3.60;99.90
10722;DHT22;5412;59.450;18.124;2024-01-30T05:38:05;3.50;99.90
10722;DHT22;5412;59.450;18.124;2024-01-30T05:40:31;3.50;99.90
10722;DHT22;5412;59.450;18.124;2024-01-30T05:42:57;3.50;99.90
10722;DHT22;5412;59.450;18.124;2024-01-30T05:45:26;3.50;99.90
10722;DHT22;5412;59.450;18.124;2024-01-30T05:47:52;3.50;99.90
10722;DHT22;5412;59.450;18.124;2024-01-30T05:50:18;3.60;99.90
10722;DHT22;5412;59.450;18.124;2024-01-30T05:52:44;3.60;99.90
10722;DHT22;5412;59.450;18.124;2024-01-30T05:55:11;3.60;99.90
10722;DHT22;5412;59.450;18.124;2024-01-30T05:57:37;3.60;99.90
10722;DHT22;5412;59.450;18.124;2024-01-30T06:00:04;3.60;99.90
10722;DHT22;5412;59.450;18.124;2024-01-30T06:02:30;3.60;99.90
10722;DHT22;5412;59.450;18.124;2024-01-30T06:04:56;3.60;99.90
10722;DHT22;5412;59.450;18.124;2024-01-30T06:07:22;3.60;99.90
10722;DHT22;5412;59.450;18.124;2024-01-30T06:09:47;3.60;99.90
10722;DHT22;5412;59.450;18.124;2024-01-30T06:12:13;3.50;99.90
10722;DHT22;5412;59.450;18.124;2024-01-30T06:14:40;3.50;99.90
10722;DHT22;5412;59.450;18.124;2024-01-30T06:17:08;3.50;99.90
10722;DHT22;5412;59.450;18.124;2024-01-30T06:19:33;3.50;99.90
10722;DHT22;5412;59.450;18.124;2024-01-30T06:21:59;3.50;99.90
10722;DHT22;5412;59.450;18.124;2024-01-30T06:24:25;3.50;99.90
10722;DHT22;5412;59.450;18.124;2024-01-30T06:26:51;3.50;99.90
10722;DHT22;5412;59.450;18.124;2024-01-30T06:29:17;3.50;99.90
10722;DHT22;5412;59.450;18.124;2024-01-30T06:31:42;3.50;99.90
10722;DHT22;5412;59.450;18.124;2024-01-30T06:34:09;3.50;99.90
10722;DHT22;5412;59.450;18.124;2024-01-30T06:36:35;3.50;99.90
10722;DHT22;5412;59.450;18.124;2024-01-30T06:39:03;3.50;99.90
10722;DHT22;5412;59.450;18.124;2024-01-30T06:41:29;3.50;99.90
10722;DHT22;5412;59.450;18.124;2024-01-30T06:43:55;3.50;99.90
10722;DHT22;5412;59.450;18.124;2024-01-30T06:46:21;3.50;99.90
10722;DHT22;5412;59.450;18.124;2024-01-30T06:48:47;3.50;99.90
10722;DHT22;5412;59.450;18.124;2024-01-30T06:51:13;3.50;99.90
10722;DHT22;5412;59.450;18.124;2024-01-30T06:53:38;3.50;99.90
10722;DHT22;5412;59.450;18.124;2024-01-30T06:56:05;3.50;99.90
10722;DHT22;5412;59.450;18.124;2024-01-30T06:58:30;3.50;99.90
10722;DHT22;5412;59.450;18.124;2024-01-30T07:00:56;3.50;99.90
10722;DHT22;5412;59.450;18.124;2024-01-30T07:03:22;3.50;99.90
10722;DHT22;5412;59.450;18.124;2024-01-30T07:05:48;3.50;99.90
10722;DHT22;5412;59.450;18.124;2024-01-30T07:08:15;3.50;99.90
10722;DHT22;5412;59.450;18.124;2024-01-30T07:10:46;3.50;99.90
10722;DHT22;5412;59.450;18.124;2024-01-30T07:13:12;3.50;99.90
10722;DHT22;5412;59.450;18.124;2024-01-30T07:15:38;3.50;99.90
10722;DHT22;5412;59.450;18.124;2024-01-30T07:18:05;3.50;99.90
10722;DHT22;5412;59.450;18.124;2024-01-30T07:20:31;3.40;99.90
10722;DHT22;5412;59.450;18.124;2024-01-30T07:23:00;3.40;99.90
10722;DHT22;5412;59.450;18.124;2024-01-30T07:25:26;3.40;99.90
10722;DHT22;5412;59.450;18.124;2024-01-30T07:27:56;3.40;99.90
10722;DHT22;5412;59.450;18.124;2024-01-30T07:30:22;3.40;99.90
10722;DHT22;5412;59.450;18.124;2024-01-30T07:32:49;3.40;99.90
10722;DHT22;5412;59.450;18.124;2024-01-30T07:35:14;3.40;99.90
10722;DHT22;5412;59.450;18.124;2024-01-30T07:37:40;3.30;99.90
10722;DHT22;5412;59.450;18.124;2024-01-30T07:40:06;3.30;99.90
10722;DHT22;5412;59.450;18.124;2024-01-30T07:42:33;3.40;99.90
10722;DHT22;5412;59.450;18.124;2024-01-30T07:44:59;3.40;99.90
10722;DHT22;5412;59.450;18.124;2024-01-30T07:47:25;3.50;99.90
10722;DHT22;5412;59.450;18.124;2024-01-30T07:49:51;3.50;99.90
10722;DHT22;5412;59.450;18.124;2024-01-30T07:52:18;3.50;99.90
10722;DHT22;5412;59.450;18.124;2024-01-30T07:54:50;3.50;99.90
10722;DHT22;5412;59.450;18.124;2024-01-30T07:57:16;3.60;99.90
10722;DHT22;5412;59.450;18.124;2024-01-30T07:59:43;3.60;99.90
10722;DHT22;5412;59.450;18.124;2024-01-30T08:02:12;3.60;99.90
10722;DHT22;5412;59.450;18.124;2024-01-30T08:04:38;3.60;99.90
10722;DHT22;5412;59.450;18.124;2024-01-30T08:07:04;3.50;99.90
10722;DHT22;5412;59.450;18.124;2024-01-30T08:09:30;3.60;99.90
10722;DHT22;5412;59.450;18.124;2024-01-30T08:11:55;3.60;99.90
10722;DHT22;5412;59.450;18.124;2024-01-30T08:14:21;3.50;99.90
10722;DHT22;5412;59.450;18.124;2024-01-30T08:16:47;3.60;99.90
10722;DHT22;5412;59.450;18.124;2024-01-30T08:19:12;3.70;99.90
10722;DHT22;5412;59.450;18.124;2024-01-30T08:21:38;3.70;99.90
10722;DHT22;5412;59.450;18.124;2024-01-30T08:24:04;3.70;99.90
10722;DHT22;5412;59.450;18.124;2024-01-30T08:26:31;3.70;99.90
10722;DHT22;5412;59.450;18.124;2024-01-30T08:28:56;3.70;99.90
10722;DHT22;5412;59.450;18.124;2024-01-30T08:31:22;3.70;99.90
10722;DHT22;5412;59.450;18.124;2024-01-30T08:33:48;3.70;99.90
10722;DHT22;5412;59.450;18.124;2024-01-30T08:36:15;3.80;99.90
10722;DHT22;5412;59.450;18.124;2024-01-30T08:38:40;3.80;99.90
10722;DHT22;5412;59.450;18.124;2024-01-30T08:41:07;3.80;99.90
10722;DHT22;5412;59.450;18.124;2024-01-30T08:43:33;3.80;99.90
10722;DHT22;5412;59.450;18.124;2024-01-30T08:46:02;3.80;99.90
10722;DHT22;5412;59.450;18.124;2024-01-30T08:48:28;3.80;99.90
10722;DHT22;5412;59.450;18.124;2024-01-30T08:50:54;3.90;99.90
10722;DHT22;5412;59.450;18.124;2024-01-30T08:53:19;3.90;99.90
10722;DHT22;5412;59.450;18.124;2024-01-30T08:55:45;3.90;99.90
10722;DHT22;5412;59.450;18.124;2024-01-30T08:58:11;3.90;99.90
10722;DHT22;5412;59.450;18.124;2024-01-30T09:00:37;3.90;99.90
10722;DHT22;5412;59.450;18.124;2024-01-30T09:03:03;3.90;99.90
10722;DHT22;5412;59.450;18.124;2024-01-30T09:05:29;3.90;99.90
10722;DHT22;5412;59.450;18.124;2024-01-30T09:07:55;4.00;99.90
10722;DHT22;5412;59.450;18.124;2024-01-30T09:10:20;4.00;99.90
10722;DHT22;5412;59.450;18.124;2024-01-30T09:12:47;4.00;99.90
10722;DHT22;5412;59.450;18.124;2024-01-30T09:15:12;4.10;99.90
10722;DHT22;5412;59.450;18.124;2024-01-30T09:17:38;4.00;99.90
10722;DHT22;5412;59.450;18.124;2024-01-30T09:20:04;4.10;99.90
10722;DHT22;5412;59.450;18.124;2024-01-30T09:22:30;4.10;99.90
10722;DHT22;5412;59.450;18.124;2024-01-30T09:24:57;4.10;99.90
10722;DHT22;5412;59.450;18.124;2024-01-30T09:27:23;4.10;99.90
10722;DHT22;5412;59.450;18.124;2024-01-30T09:29:48;4.20;99.90
10722;DHT22;5412;59.450;18.124;2024-01-30T09:32:14;4.20;99.90
10722;DHT22;5412;59.450;18.124;2024-01-30T09:34:40;4.10;99.90
10722;DHT22;5412;59.450;18.124;2024-01-30T09:37:07;4.10;99.90
10722;DHT22;5412;59.450;18.124;2024-01-30T09:39:33;4.00;99.90
10722;DHT22;5412;59.450;18.124;2024-01-30T09:42:12;4.10;99.90
10722;DHT22;5412;59.450;18.124;2024-01-30T09:44:41;4.20;99.90
10722;DHT22;5412;59.450;18.124;2024-01-30T09:47:08;4.20;99.90
10722;DHT22;5412;59.450;18.124;2024-01-30T09:49:35;4.30;99.90
10722;DHT22;5412;59.450;18.124;2024-01-30T09:52:02;4.40;99.90
10722;DHT22;5412;59.450;18.124;2024-01-30T09:54:32;4.30;99.90
10722;DHT22;5412;59.450;18.124;2024-01-30T09:56:58;4.30;99.90
10722;DHT22;5412;59.450;18.124;2024-01-30T09:59:24;4.30;99.90
10722;DHT22;5412;59.450;18.124;2024-01-30T10:01:50;4.50;99.90
10722;DHT22;5412;59.450;18.124;2024-01-30T10:04:17;4.50;99.90
10722;DHT22;5412;59.450;18.124;2024-01-30T10:06:43;4.60;99.90
10722;DHT22;5412;59.450;18.124;2024-01-30T10:09:08;4.60;99.90
10722;DHT22;5412;59.450;18.124;2024-01-30T10:11:35;4.60;99.90
10722;DHT22;5412;59.450;18.124;2024-01-30T10:14:01;4.60;99.90
10722;DHT22;5412;59.450;18.124;2024-01-30T10:16:27;4.60;99.90
10722;DHT22;5412;59.450;18.124;2024-01-30T10:18:53;4.60;99.90
10722;DHT22;5412;59.450;18.124;2024-01-30T10:21:19;4.70;99.90
10722;DHT22;5412;59.450;18.124;2024-01-30T10:23:44;4.70;99.90
10722;DHT22;5412;59.450;18.124;2024-01-30T10:26:10;4.70;99.90
10722;DHT22;5412;59.450;18.124;2024-01-30T10:28:36;4.70;99.90
10722;DHT22;5412;59.450;18.124;2024-01-30T10:31:02;4.70;99.90
10722;DHT22;5412;59.450;18.124;2024-01-30T10:33:31;4.70;99.90
10722;DHT22;5412;59.450;18.124;2024-01-30T10:36:04;4.70;99.90
10722;DHT22;5412;59.450;18.124;2024-01-30T10:38:31;4.70;99.90
10722;DHT22;5412;59.450;18.124;2024-01-30T10:40:58;4.80;99.90
10722;DHT22;5412;59.450;18.124;2024-01-30T10:43:35;4.80;99.90
10722;DHT22;5412;59.450;18.124;2024-01-30T10:48:42;4.90;99.90
10722;DHT22;5412;59.450;18.124;2024-01-30T10:51:10;4.80;99.90
10722;DHT22;5412;59.450;18.124;2024-01-30T10:53:36;4.80;99.90
10722;DHT22;5412;59.450;18.124;2024-01-30T10:56:03;4.90;99.90
10722;DHT22;5412;59.450;18.124;2024-01-30T10:58:30;4.90;99.90
10722;DHT22;5412;59.450;18.124;2024-01-30T11:00:56;4.90;99.90
10722;DHT22;5412;59.450;18.124;2024-01-30T11:03:22;4.90;99.90
10722;DHT22;5412;59.450;18.124;2024-01-30T11:05:52;5.00;99.90
10722;DHT22;5412;59.450;18.124;2024-01-30T11:08:27;5.00;99.90
10722;DHT22;5412;59.450;18.124;2024-01-30T11:10:58;5.00;99.90
10722;DHT22;5412;59.450;18.124;2024-01-30T11:13:29;5.10;99.90
10722;DHT22;5412;59.450;18.124;2024-01-30T11:15:55;5.00;99.90
10722;DHT22;5412;59.450;18.124;2024-01-30T11:18:29;5.10;99.90
10722;DHT22;5412;59.450;18.124;2024-01-30T11:20:58;5.10;99.90
10722;DHT22;5412;59.450;18.124;2024-01-30T11:23:26;4.90;99.90
10722;DHT22;5412;59.450;18.124;2024-01-30T11:25:56;5.00;99.90
10722;DHT22;5412;59.450;18.124;2024-01-30T11:28:23;5.10;99.90
10722;DHT22;5412;59.450;18.124;2024-01-30T11:30:49;5.10;99.90
10722;DHT22;5412;59.450;18.124;2024-01-30T11:33:30;5.20;99.90
10722;DHT22;5412;59.450;18.124;2024-01-30T11:35:58;5.40;99.90
10722;DHT22;5412;59.450;18.124;2024-01-30T11:38:28;5.40;99.90
10722;DHT22;5412;59.450;18.124;2024-01-30T11:40:57;5.20;99.90
10722;DHT22;5412;59.450;18.124;2024-01-30T11:43:23;5.30;99.90
10722;DHT22;5412;59.450;18.124;2024-01-30T11:45:49;5.40;99.90
10722;DHT22;5412;59.450;18.124;2024-01-30T11:48:15;5.40;99.90
10722;DHT22;5412;59.450;18.124;2024-01-30T11:50:41;5.40;99.90
10722;DHT22;5412;59.450;18.124;2024-01-30T11:53:07;5.40;99.90
10722;DHT22;5412;59.450;18.124;2024-01-30T11:55:34;5.40;99.90
10722;DHT22;5412;59.450;18.124;2024-01-30T11:58:02;5.40;99.90
10722;DHT22;5412;59.450;18.124;2024-01-30T12:00:27;5.40;99.90
10722;DHT22;5412;59.450;18.124;2024-01-30T12:02:55;5.40;99.90
10722;DHT22;5412;59.450;18.124;2024-01-30T12:05:27;5.50;99.90
10722;DHT22;5412;59.450;18.124;2024-01-30T12:07:53;5.40;99.90
10722;DHT22;5412;59.450;18.124;2024-01-30T12:10:19;5.40;99.90
10722;DHT22;5412;59.450;18.124;2024-01-30T12:12:51;5.40;99.90
10722;DHT22;5412;59.450;18.124;2024-01-30T12:15:19;5.50;99.90
10722;DHT22;5412;59.450;18.124;2024-01-30T12:17:47;5.50;99.90
10722;DHT22;5412;59.450;18.124;2024-01-30T12:20:14;5.60;99.90
10722;DHT22;5412;59.450;18.124;2024-01-30T12:22:46;5.60;99.90
10722;DHT22;5412;59.450;18.124;2024-01-30T12:25:15;5.60;99.90
10722;DHT22;5412;59.450;18.124;2024-01-30T12:27:46;5.60;99.90
10722;DHT22;5412;59.450;18.124;2024-01-30T12:30:13;5.60;99.90
10722;DHT22;5412;59.450;18.124;2024-01-30T12:32:42;5.60;99.90
10722;DHT22;5412;59.450;18.124;2024-01-30T12:35:10;5.60;99.90
10722;DHT22;5412;59.450;18.124;2024-01-30T12:37:36;5.60;99.90
10722;DHT22;5412;59.450;18.124;2024-01-30T12:40:03;5.60;99.90
10722;DHT22;5412;59.450;18.124;2024-01-30T12:42:28;5.70;99.90
10722;DHT22;5412;59.450;18.124;2024-01-30T12:44:56;5.70;99.90
10722;DHT22;5412;59.450;18.124;2024-01-30T12:47:22;5.80;99.90
10722;DHT22;5412;59.450;18.124;2024-01-30T12:49:47;5.80;99.90
10722;DHT22;5412;59.450;18.124;2024-01-30T12:52:16;5.80;99.90
10722;DHT22;5412;59.450;18.124;2024-01-30T12:54:41;5.80;99.90
10722;DHT22;5412;59.450;18.124;2024-01-30T12:57:07;5.80;99.90
10722;DHT22;5412;59.450;18.124;2024-01-30T12:59:33;5.90;99.90
10722;DHT22;5412;59.450;18.124;2024-01-30T13:02:00;5.90;99.90
10722;DHT22;5412;59.450;18.124;2024-01-30T13:04:27;5.90;99.90
10722;DHT22;5412;59.450;18.124;2024-01-30T13:06:53;5.90;99.90
10722;DHT22;5412;59.450;18.124;2024-01-30T13:09:19;5.80;99.90
10722;DHT22;5412;59.450;18.124;2024-01-30T13:11:45;5.80;99.90
10722;DHT22;5412;59.450;18.124;2024-01-30T13:14:11;5.70;99.90
10722;DHT22;5412;59.450;18.124;2024-01-30T13:16:37;5.70;99.90
10722;DHT22;5412;59.450;18.124;2024-01-30T13:19:03;5.70;99.90
10722;DHT22;5412;59.450;18.124;2024-01-30T13:21:29;5.70;99.90
10722;DHT22;5412;59.450;18.124;2024-01-30T13:23:55;5.70;99.90
10722;DHT22;5412;59.450;18.124;2024-01-30T13:26:21;5.70;99.90
10722;DHT22;5412;59.450;18.124;2024-01-30T13:28:47;5.70;99.90
10722;DHT22;5412;59.450;18.124;2024-01-30T13:31:16;5.70;99.90
10722;DHT22;5412;59.450;18.124;2024-01-30T13:33:42;5.70;99.90
10722;DHT22;5412;59.450;18.124;2024-01-30T13:36:09;5.70;99.90
10722;DHT22;5412;59.450;18.124;2024-01-30T13:38:35;5.70;99.90
10722;DHT22;5412;59.450;18.124;2024-01-30T13:41:01;5.70;99.90
10722;DHT22;5412;59.450;18.124;2024-01-30T13:43:28;5.70;99.90
10722;DHT22;5412;59.450;18.124;2024-01-30T13:45:54;5.70;99.90
10722;DHT22;5412;59.450;18.124;2024-01-30T13:48:20;5.70;99.90
10722;DHT22;5412;59.450;18.124;2024-01-30T13:50:45;5.70;99.90
10722;DHT22;5412;59.450;18.124;2024-01-30T13:53:11;5.70;99.90
10722;DHT22;5412;59.450;18.124;2024-01-30T13:55:37;5.70;99.90
10722;DHT22;5412;59.450;18.124;2024-01-30T13:58:05;5.70;99.90
10722;DHT22;5412;59.450;18.124;2024-01-30T14:00:30;5.70;99.90
10722;DHT22;5412;59.450;18.124;2024-01-30T14:02:56;5.70;99.90
10722;DHT22;5412;59.450;18.124;2024-01-30T14:05:24;5.70;99.90
10722;DHT22;5412;59.450;18.124;2024-01-30T14:07:50;5.70;99.90
10722;DHT22;5412;59.450;18.124;2024-01-30T14:10:16;5.70;99.90
10722;DHT22;5412;59.450;18.124;2024-01-30T14:12:43;5.70;99.90
10722;DHT22;5412;59.450;18.124;2024-01-30T14:15:10;5.60;99.90
10722;DHT22;5412;59.450;18.124;2024-01-30T14:17:36;5.70;99.90
10722;DHT22;5412;59.450;18.124;2024-01-30T14:20:03;5.70;99.90
10722;DHT22;5412;59.450;18.124;2024-01-30T14:22:30;5.60;99.90
10722;DHT22;5412;59.450;18.124;2024-01-30T14:24:55;5.60;99.90
10722;DHT22;5412;59.450;18.124;2024-01-30T14:27:22;5.60;99.90
10722;DHT22;5412;59.450;18.124;2024-01-30T14:29:48;5.60;99.90
10722;DHT22;5412;59.450;18.124;2024-01-30T14:32:13;5.60;99.90
10722;DHT22;5412;59.450;18.124;2024-01-30T14:34:39;5.70;99.90
10722;DHT22;5412;59.450;18.124;2024-01-30T14:37:05;5.70;99.90
10722;DHT22;5412;59.450;18.124;2024-01-30T14:39:31;5.70;99.90
10722;DHT22;5412;59.450;18.124;2024-01-30T14:41:58;5.70;99.90
10722;DHT22;5412;59.450;18.124;2024-01-30T14:44:24;5.60;99.90
10722;DHT22;5412;59.450;18.124;2024-01-30T14:46:49;5.70;99.90
10722;DHT22;5412;59.450;18.124;2024-01-30T14:49:15;5.60;99.90
10722;DHT22;5412;59.450;18.124;2024-01-30T14:51:41;5.60;99.90
10722;DHT22;5412;59.450;18.124;2024-01-30T14:54:07;5.60;99.90
10722;DHT22;5412;59.450;18.124;2024-01-30T14:56:33;5.60;99.90
10722;DHT22;5412;59.450;18.124;2024-01-30T14:58:59;5.60;99.90
10722;DHT22;5412;59.450;18.124;2024-01-30T15:01:24;5.60;99.90
10722;DHT22;5412;59.450;18.124;2024-01-30T15:03:50;5.60;99.90
10722;DHT22;5412;59.450;18.124;2024-01-30T15:06:21;5.60;99.90
10722;DHT22;5412;59.450;18.124;2024-01-30T15:08:50;5.60;99.90
10722;DHT22;5412;59.450;18.124;2024-01-30T15:11:15;5.60;99.90
10722;DHT22;5412;59.450;18.124;2024-01-30T15:13:41;5.60;99.90
10722;DHT22;5412;59.450;18.124;2024-01-30T15:16:07;5.60;99.90
10722;DHT22;5412;59.450;18.124;2024-01-30T15:18:33;5.60;99.90
10722;DHT22;5412;59.450;18.124;2024-01-30T15:20:59;5.60;99.90
10722;DHT22;5412;59.450;18.124;2024-01-30T15:23:24;5.60;99.90
10722;DHT22;5412;59.450;18.124;2024-01-30T15:25:50;5.60;99.90
10722;DHT22;5412;59.450;18.124;2024-01-30T15:28:16;5.60;99.90
10722;DHT22;5412;59.450;18.124;2024-01-30T15:30:42;5.50;99.90
10722;DHT22;5412;59.450;18.124;2024-01-30T15:33:12;5.50;99.90
10722;DHT22;5412;59.450;18.124;2024-01-30T15:35:37;5.40;99.90
10722;DHT22;5412;59.450;18.124;2024-01-30T15:38:04;5.50;99.90
10722;DHT22;5412;59.450;18.124;2024-01-30T15:40:34;5.60;99.90
10722;DHT22;5412;59.450;18.124;2024-01-30T15:43:00;5.60;99.90